Time;durP1;ratioP1;P1;durP2;ratioP2;P2;SDS_P1;SDS_P2;PMS_P1;PMS_P2;Temp;Humidity;BMP_temperature;BMP_pressure;BME280_temperature;BME280_humidity;BME280_pressure;Samples;Min_cycle;Max_cycle;Signal;HPM_P1;HPM_P2
2022/06/17 00:01:03;;;;;;;1999.90;999.90;;;;;;;21.27;45.08;95950.13;5029407;28;20588;-67
2022/06/17 00:03:31;;;;;;;1999.90;999.90;;;;;;;20.97;45.20;95909.25;5029585;28;20018;-68
2022/06/17 00:05:58;;;;;;;1999.90;999.90;;;;;;;21.03;45.47;95934.88;5029389;28;20025;-67
2022/06/17 00:08:28;;;;;;;1999.90;999.90;;;;;;;21.13;45.73;95930.84;5029478;28;20028;-68
2022/06/17 00:10:55;;;;;;;1999.90;999.90;;;;;;;21.13;45.64;95930.06;5027999;28;20030;-68
2022/06/17 00:13:21;;;;;;;1999.90;999.90;;;;;;;21.01;45.82;95923.66;5029656;28;20646;-67
2022/06/17 00:15:47;;;;;;;1999.90;999.90;;;;;;;21.03;45.92;95926.00;5029423;28;20033;-68
2022/06/17 00:18:14;;;;;;;1999.90;999.90;;;;;;;21.10;45.87;95937.00;5029558;28;20084;-68
2022/06/17 00:20:40;;;;;;;1999.90;999.90;;;;;;;20.94;45.83;95920.00;5028906;28;20156;-67
2022/06/17 00:23:14;;;;;;;1999.90;999.90;;;;;;;20.89;46.11;95915.66;5028328;28;20061;-67
2022/06/17 00:25:40;;;;;;;1999.90;999.90;;;;;;;20.89;46.89;95921.06;5033131;28;20125;-67
2022/06/17 00:28:11;;;;;;;1999.90;999.90;;;;;;;20.70;47.07;95902.84;5032444;28;20029;-67
2022/06/17 00:30:37;;;;;;;1999.90;999.90;;;;;;;20.72;46.83;95911.38;5031888;28;20028;-68
2022/06/17 00:33:03;;;;;;;1999.90;999.90;;;;;;;20.68;46.92;95910.53;5033503;28;20029;-68
2022/06/17 00:35:38;;;;;;;1999.90;999.90;;;;;;;20.80;46.56;95938.59;5032051;28;20029;-68
2022/06/17 00:38:04;;;;;;;1999.90;999.90;;;;;;;20.58;46.70;95908.34;5033321;28;20440;-67
2022/06/17 00:40:33;;;;;;;1999.90;999.90;;;;;;;20.54;47.03;95912.88;5032679;28;20021;-67
2022/06/17 00:43:02;;;;;;;1999.90;999.90;;;;;;;20.59;47.00;95928.84;5033511;28;20471;-67
2022/06/17 00:45:37;;;;;;;1999.90;999.90;;;;;;;20.43;47.78;95925.31;5033092;28;20109;-68
2022/06/17 00:48:21;;;;;;;1999.90;999.90;;;;;;;20.55;47.92;95933.34;5031854;28;20036;-68
2022/06/17 00:50:52;;;;;;;1999.90;999.90;;;;;;;20.17;48.69;95936.63;5032614;28;20027;-67
2022/06/17 00:53:28;;;;;;;1999.90;999.90;;;;;;;19.70;48.96;95907.53;5031964;28;20436;-68
2022/06/17 00:55:59;;;;;;;1999.90;999.90;;;;;;;19.61;49.43;95917.72;5033097;28;20021;-67
2022/06/17 00:58:29;;;;;;;1999.90;999.90;;;;;;;19.91;49.34;95937.03;5032926;28;20075;-67
2022/06/17 01:00:58;;;;;;;1999.90;999.90;;;;;;;19.70;49.24;95904.84;5032824;28;20112;-68
2022/06/17 01:03:28;;;;;;;1999.90;999.90;;;;;;;19.89;48.92;95937.41;5033080;28;20033;-68
2022/06/17 01:06:00;;;;;;;1999.90;999.90;;;;;;;20.00;49.02;95951.97;5033069;28;20071;-67
2022/06/17 01:11:16;;;;;;;1999.90;999.90;;;;;;;19.90;49.46;95960.56;5032463;28;20136;-69
2022/06/17 01:13:48;;;;;;;1999.90;999.90;;;;;;;19.73;49.00;95912.28;5032932;28;20056;-67
2022/06/17 01:16:13;;;;;;;1999.90;999.90;;;;;;;19.66;49.57;95915.56;5032703;28;20029;-67
2022/06/17 01:18:43;;;;;;;1999.90;999.90;;;;;;;20.02;48.86;95959.75;5031069;28;20029;-68
2022/06/17 01:21:57;;;;;;;1999.90;999.90;;;;;;;19.97;49.21;95958.06;5031980;28;20374;-67
2022/06/17 01:24:24;;;;;;;1999.90;999.90;;;;;;;19.70;49.86;95956.91;5025229;28;20038;-68
2022/06/17 01:26:49;;;;;;;1999.90;999.90;;;;;;;19.42;50.27;95942.59;5032386;28;20032;-68
2022/06/17 01:29:15;;;;;;;1999.90;999.90;;;;;;;19.78;50.21;95992.22;5032487;28;20108;-68
2022/06/17 01:31:46;;;;;;;1999.90;999.90;;;;;;;19.78;49.90;95995.72;5032095;28;20017;-68
2022/06/17 01:34:13;;;;;;;1999.90;999.90;;;;;;;19.86;49.70;95994.78;5031018;28;20478;-67
2022/06/17 01:36:42;;;;;;;1999.90;999.90;;;;;;;19.59;49.85;95972.03;5031759;28;20029;-68
2022/06/17 01:39:08;;;;;;;1999.90;999.90;;;;;;;19.63;49.44;95958.63;5031984;28;20083;-68
2022/06/17 01:41:33;;;;;;;1999.90;999.90;;;;;;;19.57;50.24;95971.56;5031742;28;20112;-67
2022/06/17 01:44:06;;;;;;;1999.90;999.90;;;;;;;19.49;50.81;95975.16;5031023;28;20025;-68
2022/06/17 01:46:37;;;;;;;1999.90;999.90;;;;;;;19.66;50.05;95980.34;5031954;28;20061;-68
2022/06/17 01:49:20;;;;;;;1999.90;999.90;;;;;;;19.02;50.66;95950.59;5032280;28;20440;-69
2022/06/17 01:52:11;;;;;;;1999.90;999.90;;;;;;;18.96;51.84;95982.41;5031638;28;20072;-69
2022/06/17 01:55:01;;;;;;;1999.90;999.90;;;;;;;18.95;51.89;95989.72;5029023;28;20033;-67
2022/06/17 01:57:35;;;;;;;1999.90;999.90;;;;;;;19.14;51.51;95981.06;5030437;28;20752;-68
2022/06/17 02:00:17;;;;;;;1999.90;999.90;;;;;;;19.11;51.12;95962.06;5031485;28;20021;-67
2022/06/17 02:02:47;;;;;;;1999.90;999.90;;;;;;;19.44;50.81;95984.28;5031755;28;20049;-68
2022/06/17 02:05:12;;;;;;;1999.90;999.90;;;;;;;19.09;51.41;95948.94;5031859;28;20056;-67
2022/06/17 02:07:57;;;;;;;1999.90;999.90;;;;;;;19.24;50.70;95950.13;5031827;28;20064;-67
2022/06/17 02:10:27;;;;;;;1999.90;999.90;;;;;;;19.71;49.98;95972.00;5031540;28;20064;-68
2022/06/17 02:12:55;;;;;;;1999.90;999.90;;;;;;;19.52;50.21;95936.72;5031780;28;20425;-68
2022/06/17 02:15:21;;;;;;;1999.90;999.90;;;;;;;19.57;49.95;95933.00;5031192;28;20022;-67
2022/06/17 02:17:48;;;;;;;1999.90;999.90;;;;;;;19.64;49.83;95958.28;5031520;28;20731;-68
2022/06/17 02:20:15;;;;;;;1999.90;999.90;;;;;;;19.66;49.98;95966.84;5031082;28;20026;-67
2022/06/17 02:22:41;;;;;;;1999.90;999.90;;;;;;;19.52;50.18;95950.19;5031296;28;20029;-67
2022/06/17 02:25:11;;;;;;;1999.90;999.90;;;;;;;19.43;50.34;95933.34;5029068;28;20136;-67
2022/06/17 02:27:38;;;;;;;1999.90;999.90;;;;;;;19.43;50.37;95933.34;5030325;28;20025;-67
2022/06/17 02:30:06;;;;;;;1999.90;999.90;;;;;;;19.51;50.48;95950.56;5031097;28;20025;-67
2022/06/17 02:32:32;;;;;;;1999.90;999.90;;;;;;;19.21;50.47;95913.84;5031077;28;20078;-67
2022/06/17 02:35:23;;;;;;;1999.90;999.90;;;;;;;19.34;50.69;95935.41;5029907;28;20029;-67
2022/06/17 02:37:48;;;;;;;1999.90;999.90;;;;;;;19.19;51.20;95918.81;5030985;28;20029;-67
2022/06/17 02:40:36;;;;;;;1999.90;999.90;;;;;;;19.15;50.78;95923.31;5030782;28;20029;-67
2022/06/17 02:43:06;;;;;;;1999.90;999.90;;;;;;;19.19;51.06;95929.59;5031254;28;20060;-67
2022/06/17 02:45:39;;;;;;;1999.90;999.90;;;;;;;18.97;50.99;95900.41;5031274;28;20018;-67
2022/06/17 02:48:40;;;;;;;1999.90;999.90;;;;;;;18.91;51.37;95904.44;5030688;28;20017;-67
2022/06/17 02:51:05;;;;;;;1999.90;999.90;;;;;;;19.11;51.53;95937.81;5021372;28;20041;-67
2022/06/17 02:53:35;;;;;;;1999.90;999.90;;;;;;;19.24;51.48;95944.72;5029646;28;20022;-67
2022/06/17 02:56:05;;;;;;;1999.90;999.90;;;;;;;18.95;51.49;95898.06;5030713;28;20445;-67
2022/06/17 02:58:54;;;;;;;1999.90;999.90;;;;;;;19.10;51.52;95920.06;5029434;28;20021;-67
2022/06/17 03:01:24;;;;;;;1999.90;999.90;;;;;;;19.22;51.12;95937.00;5022622;28;20061;-67
2022/06/17 03:03:52;;;;;;;1999.90;999.90;;;;;;;19.17;51.09;95912.16;5030443;28;20029;-67
2022/06/17 03:06:21;;;;;;;1999.90;999.90;;;;;;;19.26;50.72;95925.53;5030466;28;20022;-67
2022/06/17 03:08:50;;;;;;;1999.90;999.90;;;;;;;19.08;50.63;95890.72;5030486;28;20049;-67
2022/06/17 03:11:17;;;;;;;1999.90;999.90;;;;;;;19.27;50.84;95919.78;5028771;28;20036;-67
2022/06/17 03:13:50;;;;;;;1999.90;999.90;;;;;;;19.18;50.67;95911.81;5030469;28;20071;-67
2022/06/17 03:16:16;;;;;;;1999.90;999.90;;;;;;;19.21;50.58;95918.47;5029222;28;20021;-67
2022/06/17 03:18:48;;;;;;;1999.90;999.90;;;;;;;19.00;50.35;95893.56;5029109;28;20029;-67
2022/06/17 03:21:17;;;;;;;1999.90;999.90;;;;;;;19.04;50.19;95911.41;5030229;28;20029;-67
2022/06/17 03:24:05;;;;;;;1999.90;999.90;;;;;;;19.19;50.51;95935.00;5029228;28;20030;-67
2022/06/17 03:26:38;;;;;;;1999.90;999.90;;;;;;;18.89;50.23;95902.09;5028895;28;20080;-67
2022/06/17 03:29:06;;;;;;;1999.90;999.90;;;;;;;19.09;50.37;95946.25;5029323;28;20033;-67
2022/06/17 03:31:34;;;;;;;1999.90;999.90;;;;;;;18.95;51.15;95956.56;5028581;28;20087;-67
2022/06/17 03:34:13;;;;;;;1999.90;999.90;;;;;;;19.06;50.76;95957.69;5028830;28;20032;-67
2022/06/17 03:36:56;;;;;;;1999.90;999.90;;;;;;;18.95;50.77;95935.00;5030019;28;20021;-68
2022/06/17 03:39:30;;;;;;;1999.90;999.90;;;;;;;19.02;50.95;95950.59;5030272;28;20044;-68
2022/06/17 03:42:00;;;;;;;1999.90;999.90;;;;;;;18.94;51.06;95933.44;5029840;28;20033;-68
2022/06/17 03:44:33;;;;;;;1999.90;999.90;;;;;;;19.09;50.97;95965.13;5028876;28;20044;-68
2022/06/17 03:47:10;;;;;;;1999.90;999.90;;;;;;;19.00;51.02;95945.56;5030077;28;20025;-67
2022/06/17 03:49:50;;;;;;;1999.90;999.90;;;;;;;19.00;50.83;95959.03;5030122;28;20025;-67
2022/06/17 03:52:37;;;;;;;1999.90;999.90;;;;;;;18.99;50.64;95954.78;5029785;28;20033;-67
2022/06/17 03:55:03;;;;;;;1999.90;999.90;;;;;;;18.92;50.34;95947.25;5029991;28;20095;-67
2022/06/17 03:57:31;;;;;;;1999.90;999.90;;;;;;;19.02;50.60;95999.94;5029431;28;20541;-67
2022/06/17 03:59:58;;;;;;;1999.90;999.90;;;;;;;18.68;50.90;95998.44;5028388;28;20025;-67
2022/06/17 04:02:29;;;;;;;1999.90;999.90;;;;;;;18.81;50.89;95978.47;5028360;28;20347;-67
2022/06/17 04:04:54;;;;;;;1999.90;999.90;;;;;;;19.52;50.01;96000.69;5029734;28;20064;-67
2022/06/17 04:07:20;;;;;;;1999.90;999.90;;;;;;;19.89;49.21;95986.00;5028518;28;20052;-67
2022/06/17 04:09:47;;;;;;;1999.90;999.90;;;;;;;20.34;48.16;95970.63;5029662;28;20029;-67
2022/06/17 04:12:12;;;;;;;1999.90;999.90;;;;;;;20.99;47.29;95987.34;5029347;28;20025;-67
2022/06/17 04:15:03;;;;;;;1999.90;999.90;;;;;;;21.37;46.24;95989.41;5028309;28;20032;-67
2022/06/17 04:17:44;;;;;;;1999.90;999.90;;;;;;;21.60;44.83;95965.19;5029575;28;20022;-67
2022/06/17 04:20:27;;;;;;;1999.90;999.90;;;;;;;21.92;43.99;95959.63;5027813;28;20299;-66
2022/06/17 04:22:57;;;;;;;1999.90;999.90;;;;;;;22.25;42.85;95962.63;5029796;28;20163;-68
2022/06/17 04:25:33;;;;;;;1999.90;999.90;;;;;;;22.57;42.67;95959.69;5028371;28;20029;-67
2022/06/17 04:28:06;;;;;;;1999.90;999.90;;;;;;;22.80;41.76;95976.00;5029505;28;20022;-67
2022/06/17 04:30:37;;;;;;;1999.90;999.90;;;;;;;23.05;41.62;95969.06;5027766;28;20021;-67
2022/06/17 04:33:12;;;;;;;1999.90;999.90;;;;;;;23.42;40.85;95978.53;5028172;28;20021;-69
2022/06/17 04:35:38;;;;;;;1999.90;999.90;;;;;;;23.52;40.67;95956.94;5029258;28;20021;-68
2022/06/17 04:38:04;;;;;;;1999.90;999.90;;;;;;;23.87;39.88;95977.63;5028088;28;20036;-68
2022/06/17 04:40:36;;;;;;;1999.90;999.90;;;;;;;24.10;39.08;95988.34;5028856;28;20030;-67
2022/06/17 04:43:24;;;;;;;1999.90;999.90;;;;;;;24.08;39.04;95966.22;5029284;28;20022;-68
2022/06/17 04:46:08;;;;;;;1999.90;999.90;;;;;;;24.45;38.72;95987.22;5018231;28;20163;-67
2022/06/17 04:48:35;;;;;;;1999.90;999.90;;;;;;;24.61;38.33;95982.34;5029436;28;20057;-68
2022/06/17 04:51:02;;;;;;;1999.90;999.90;;;;;;;24.55;37.54;95973.72;5028942;28;20111;-69
2022/06/17 04:53:29;;;;;;;1999.90;999.90;;;;;;;24.79;36.95;96010.50;5029245;28;20025;-68
2022/06/17 04:55:55;;;;;;;1999.90;999.90;;;;;;;24.47;37.11;95974.06;5027999;28;20040;-68
2022/06/17 04:58:24;;;;;;;1999.90;999.90;;;;;;;23.42;37.76;96000.25;5029093;28;20490;-68
2022/06/17 05:00:54;;;;;;;1999.90;999.90;;;;;;;22.17;40.74;96012.44;5028770;28;20510;-68
2022/06/17 05:03:21;;;;;;;1999.90;999.90;;;;;;;22.52;40.17;95978.97;5027997;28;20382;-68
2022/06/17 05:05:47;;;;;;;1999.90;999.90;;;;;;;21.68;42.04;96031.88;5029378;28;20374;-68
2022/06/17 05:08:24;;;;;;;1999.90;999.90;;;;;;;21.39;42.65;96016.91;5029190;28;20025;-67
2022/06/17 05:10:54;;;;;;;1999.90;999.90;;;;;;;20.74;43.81;96022.66;5030808;28;20147;-67
2022/06/17 05:13:33;;;;;;;1999.90;999.90;;;;;;;21.40;43.07;96031.25;5031698;28;20029;-68
2022/06/17 05:15:58;;;;;;;1999.90;999.90;;;;;;;21.87;42.05;96022.22;5032904;28;20029;-68
2022/06/17 05:18:24;;;;;;;1999.90;999.90;;;;;;;21.81;42.39;96032.56;5032700;28;20026;-68
2022/06/17 05:20:49;;;;;;;1999.90;999.90;;;;;;;21.94;41.31;96052.94;5032325;28;20520;-67
2022/06/17 05:23:17;;;;;;;1999.90;999.90;;;;;;;21.79;42.04;96059.19;5032638;28;20036;-67
2022/06/17 05:25:45;;;;;;;1999.90;999.90;;;;;;;22.37;41.43;96058.47;5032622;28;20386;-68
2022/06/17 05:28:18;;;;;;;1999.90;999.90;;;;;;;21.54;42.13;96066.75;5032562;28;20017;-67
2022/06/17 05:30:51;;;;;;;1999.90;999.90;;;;;;;21.57;41.96;96041.69;5030900;28;20021;-68
2022/06/17 05:33:17;;;;;;;1999.90;999.90;;;;;;;21.72;40.97;96053.63;5032572;28;20711;-67
2022/06/17 05:35:42;;;;;;;1999.90;999.90;;;;;;;22.55;39.96;96073.16;5032500;28;20030;-68
2022/06/17 05:38:08;;;;;;;1999.90;999.90;;;;;;;22.65;39.27;96059.03;5031208;28;20017;-70
2022/06/17 05:40:35;;;;;;;1999.90;999.90;;;;;;;23.17;38.94;96070.44;5031812;28;20024;-68
2022/06/17 05:43:00;;;;;;;1999.90;999.90;;;;;;;23.31;38.31;96044.31;5032147;28;20037;-67
2022/06/17 05:45:27;;;;;;;1999.90;999.90;;;;;;;23.21;37.45;96072.06;5032371;28;20037;-68
2022/06/17 05:47:53;;;;;;;1999.90;999.90;;;;;;;23.53;36.66;96034.53;5032227;28;20091;-68
2022/06/17 05:50:19;;;;;;;1999.90;999.90;;;;;;;23.30;36.86;96012.88;5031643;28;20022;-68
2022/06/17 05:52:56;;;;;;;1999.90;999.90;;;;;;;23.02;38.47;96078.31;5032083;28;20105;-67
2022/06/17 05:55:23;;;;;;;1999.90;999.90;;;;;;;23.63;37.03;96060.31;5031843;28;20029;-68
2022/06/17 05:57:48;;;;;;;1999.90;999.90;;;;;;;23.73;36.51;96081.44;5031637;28;20025;-67
2022/06/17 06:00:15;;;;;;;1999.90;999.90;;;;;;;23.48;36.84;96075.59;5031453;28;20036;-68
2022/06/17 06:02:41;;;;;;;1999.90;999.90;;;;;;;23.90;36.75;96049.44;5031520;28;20053;-68
2022/06/17 06:05:08;;;;;;;1999.90;999.90;;;;;;;24.13;36.15;96044.72;5030458;28;20507;-68
2022/06/17 06:07:34;;;;;;;1999.90;999.90;;;;;;;24.97;36.33;96081.41;5031784;28;20082;-68
2022/06/17 06:09:59;;;;;;;1999.90;999.90;;;;;;;25.24;35.16;96090.28;5031276;28;20413;-68
2022/06/17 06:12:53;;;;;;;1999.90;999.90;;;;;;;23.96;36.38;96083.31;5031597;28;20075;-68
2022/06/17 06:15:11;;;;;;;1999.90;999.90;;;;;;;24.06;37.03;96091.63;5031553;28;20029;-68
2022/06/17 06:17:37;;;;;;;1999.90;999.90;;;;;;;23.04;37.91;96061.69;5031733;28;20108;-68
2022/06/17 06:20:03;;;;;;;1999.90;999.90;;;;;;;22.62;39.20;96102.34;5031128;28;20105;-68
2022/06/17 06:22:28;;;;;;;1999.90;999.90;;;;;;;23.99;37.70;96110.53;5030448;28;20040;-67
2022/06/17 06:24:53;;;;;;;1999.90;999.90;;;;;;;23.76;37.06;96079.94;5031374;28;20040;-68
2022/06/17 06:27:19;;;;;;;1999.90;999.90;;;;;;;23.31;38.01;96117.59;5030260;28;20105;-68
2022/06/17 06:29:45;;;;;;;1999.90;999.90;;;;;;;22.89;38.37;96074.22;5031639;28;20025;-69
2022/06/17 06:32:10;;;;;;;1999.90;999.90;;;;;;;23.22;38.06;96045.69;5031066;28;20032;-68
2022/06/17 06:34:36;;;;;;;1999.90;999.90;;;;;;;24.14;37.23;96087.03;5031242;28;20029;-68
2022/06/17 06:37:02;;;;;;;1999.90;999.90;;;;;;;23.93;37.53;96097.63;5031058;28;20045;-68
2022/06/17 06:39:27;;;;;;;1999.90;999.90;;;;;;;22.81;39.18;96075.97;5031398;28;20026;-68
2022/06/17 06:41:53;;;;;;;1999.90;999.90;;;;;;;23.14;38.35;96123.50;5029330;28;20098;-69
2022/06/17 06:44:18;;;;;;;1999.90;999.90;;;;;;;23.36;37.98;96094.78;5031007;28;20107;-68
2022/06/17 06:46:44;;;;;;;1999.90;999.90;;;;;;;23.21;37.54;96069.34;5030944;28;20033;-69
2022/06/17 06:49:09;;;;;;;1999.90;999.90;;;;;;;23.70;36.40;96079.47;5029508;28;20377;-69
2022/06/17 06:51:34;;;;;;;1999.90;999.90;;;;;;;23.92;36.73;96066.97;5030779;28;20541;-68
2022/06/17 06:54:00;;;;;;;1999.90;999.90;;;;;;;23.45;38.23;96059.25;5030659;28;20041;-68
2022/06/17 06:56:25;;;;;;;1999.90;999.90;;;;;;;23.31;38.36;96068.72;5030707;28;20033;-68
2022/06/17 06:58:51;;;;;;;1999.90;999.90;;;;;;;23.38;37.97;96097.91;5030882;28;20029;-68
2022/06/17 07:01:17;;;;;;;1999.90;999.90;;;;;;;23.25;38.54;96110.91;5030386;28;20060;-68
2022/06/17 07:03:42;;;;;;;1999.90;999.90;;;;;;;22.77;38.88;96125.88;5029569;28;20052;-68
2022/06/17 07:06:08;;;;;;;1999.90;999.90;;;;;;;22.51;38.91;96059.53;5030747;28;20029;-68
2022/06/17 07:08:36;;;;;;;1999.90;999.90;;;;;;;23.01;39.51;96078.69;5030755;28;20028;-68
2022/06/17 07:11:05;;;;;;;1999.90;999.90;;;;;;;23.49;38.27;96092.66;5030144;28;20049;-68
2022/06/17 07:13:31;;;;;;;1999.90;999.90;;;;;;;23.70;38.06;96082.19;5030587;28;20463;-68
2022/06/17 07:15:57;;;;;;;1999.90;999.90;;;;;;;23.44;39.09;96139.94;5030545;28;20052;-68
2022/06/17 07:18:26;;;;;;;1999.90;999.90;;;;;;;23.08;39.73;96124.94;5029093;28;20025;-68
2022/06/17 07:20:57;;;;;;;1999.90;999.90;;;;;;;23.20;39.37;96097.63;5029801;28;20029;-68
2022/06/17 07:23:40;;;;;;;1999.90;999.90;;;;;;;24.45;37.25;96118.53;5030276;28;20032;-68
2022/06/17 07:26:16;;;;;;;1999.90;999.90;;;;;;;24.99;37.34;96133.56;5030454;28;20053;-68
2022/06/17 07:28:43;;;;;;;1999.90;999.90;;;;;;;25.08;37.09;96125.09;5030560;28;20449;-68
2022/06/17 07:31:08;;;;;;;1999.90;999.90;;;;;;;25.14;37.43;96080.06;5029762;28;20025;-68
2022/06/17 07:33:34;;;;;;;1999.90;999.90;;;;;;;25.41;36.40;96064.34;5029944;28;20096;-70
2022/06/17 07:36:01;;;;;;;1999.90;999.90;;;;;;;25.81;35.88;96111.78;5030301;28;20040;-68
2022/06/17 07:41:17;;;;;;;1999.90;999.90;;;;;;;25.09;36.06;96091.31;5029873;28;20032;-70
2022/06/17 07:43:43;;;;;;;1999.90;999.90;;;;;;;25.49;36.67;96062.44;5030170;28;20100;-68
2022/06/17 07:46:10;;;;;;;1999.90;999.90;;;;;;;26.22;35.44;96078.91;5029918;28;20474;-68
2022/06/17 07:48:37;;;;;;;1999.90;999.90;;;;;;;25.32;35.42;96089.16;5029931;28;20355;-68
2022/06/17 07:51:03;;;;;;;1999.90;999.90;;;;;;;24.31;36.85;96088.41;5029659;28;20051;-68
2022/06/17 07:53:31;;;;;;;1999.90;999.90;;;;;;;24.77;36.13;96075.41;5029942;28;20069;-68
2022/06/17 07:56:01;;;;;;;1999.90;999.90;;;;;;;24.46;36.81;96111.94;5029897;28;20045;-68
2022/06/17 07:58:27;;;;;;;1999.90;999.90;;;;;;;24.38;37.10;96089.34;5029557;28;20029;-68
2022/06/17 08:00:54;;;;;;;1999.90;999.90;;;;;;;24.98;36.74;96106.69;5029230;28;20029;-68
2022/06/17 08:03:19;;;;;;;1999.90;999.90;;;;;;;24.62;36.83;96093.50;5029957;28;20025;-68
2022/06/17 08:05:51;;;;;;;1999.90;999.90;;;;;;;24.64;36.96;96095.84;5029768;28;20347;-67
2022/06/17 08:08:21;;;;;;;1999.90;999.90;;;;;;;24.99;36.39;96144.44;5029935;28;20104;-68
2022/06/17 08:10:49;;;;;;;1999.90;999.90;;;;;;;25.17;35.81;96082.03;5029441;28;20022;-69
2022/06/17 08:13:15;;;;;;;1999.90;999.90;;;;;;;25.22;35.75;96133.41;5029656;28;20421;-68
2022/06/17 08:15:41;;;;;;;1999.90;999.90;;;;;;;24.60;36.54;96105.91;5029396;28;20021;-69
2022/06/17 08:18:06;;;;;;;1999.90;999.90;;;;;;;24.86;34.66;96089.47;5029694;28;20068;-68
2022/06/17 08:20:35;;;;;;;1999.90;999.90;;;;;;;24.45;35.86;96091.34;5028994;28;20060;-68
2022/06/17 08:23:02;;;;;;;1999.90;999.90;;;;;;;24.23;36.05;96108.53;5029566;28;20100;-68
2022/06/17 08:25:30;;;;;;;1999.90;999.90;;;;;;;25.13;35.80;96102.97;5029461;28;20021;-68
2022/06/17 08:27:57;;;;;;;1999.90;999.90;;;;;;;25.93;34.31;96141.44;5029655;28;20017;-69
2022/06/17 08:30:26;;;;;;;1999.90;999.90;;;;;;;24.49;35.92;96115.88;5028966;28;20030;-69
2022/06/17 08:32:53;;;;;;;1999.90;999.90;;;;;;;24.76;35.83;96122.78;5029390;28;20033;-69
2022/06/17 08:35:30;;;;;;;1999.90;999.90;;;;;;;24.12;37.51;96106.44;5029512;28;20018;-69
2022/06/17 08:38:00;;;;;;;1999.90;999.90;;;;;;;24.70;36.56;96159.66;5029611;28;20478;-69
2022/06/17 08:40:58;;;;;;;1999.90;999.90;;;;;;;24.22;36.12;96136.88;5028959;28;20061;-69
2022/06/17 08:43:45;;;;;;;1999.90;999.90;;;;;;;25.36;36.02;96160.78;5025002;28;20488;-69
2022/06/17 08:46:18;;;;;;;1999.90;999.90;;;;;;;24.19;36.38;96108.47;5031930;28;20036;-69
2022/06/17 08:48:50;;;;;;;1999.90;999.90;;;;;;;25.41;35.08;96137.88;5033112;28;20025;-69
2022/06/17 08:51:31;;;;;;;1999.90;999.90;;;;;;;25.37;34.47;96164.28;5033048;28;20083;-70
2022/06/17 08:54:19;;;;;;;1999.90;999.90;;;;;;;24.67;36.17;96181.38;5033206;28;20489;-69
2022/06/17 08:57:10;;;;;;;1999.90;999.90;;;;;;;25.10;35.95;96183.47;5031950;28;20386;-70
2022/06/17 08:59:45;;;;;;;1999.90;999.90;;;;;;;24.87;35.70;96167.22;5033301;28;20381;-70
2022/06/17 09:02:27;;;;;;;1999.90;999.90;;;;;;;24.35;36.35;96138.19;5032528;28;20060;-69
2022/06/17 09:05:06;;;;;;;1999.90;999.90;;;;;;;24.45;35.75;96183.81;5031427;28;20029;-69
2022/06/17 09:07:40;;;;;;;1999.90;999.90;;;;;;;25.42;34.86;96183.03;5032979;28;20489;-69
2022/06/17 09:10:23;;;;;;;1999.90;999.90;;;;;;;24.74;34.83;96160.50;5032549;28;20029;-69
2022/06/17 09:13:11;;;;;;;1999.90;999.90;;;;;;;24.11;34.66;96126.63;5032750;28;20075;-70
2022/06/17 09:15:41;;;;;;;1999.90;999.90;;;;;;;24.18;34.55;96123.22;5032770;28;20550;-69
2022/06/17 09:18:29;;;;;;;1999.90;999.90;;;;;;;25.24;32.52;96142.00;5032782;28;20548;-69
2022/06/17 09:21:10;;;;;;;1999.90;999.90;;;;;;;24.51;33.35;96159.78;5032459;28;20029;-69
2022/06/17 09:23:38;;;;;;;1999.90;999.90;;;;;;;24.19;34.62;96145.75;5032767;28;20054;-69
2022/06/17 09:26:11;;;;;;;1999.90;999.90;;;;;;;24.12;35.07;96111.09;5032272;28;20799;-69
2022/06/17 09:28:42;;;;;;;1999.90;999.90;;;;;;;25.14;33.67;96169.91;5032177;28;20025;-69
2022/06/17 09:31:19;;;;;;;1999.90;999.90;;;;;;;24.46;34.89;96160.13;5032294;28;20087;-70
2022/06/17 09:34:07;;;;;;;1999.90;999.90;;;;;;;24.84;33.67;96154.38;5032521;28;20106;-69
2022/06/17 09:36:38;;;;;;;1999.90;999.90;;;;;;;24.79;32.72;96149.28;5032091;28;20474;-69
2022/06/17 09:39:11;;;;;;;1999.90;999.90;;;;;;;24.76;33.77;96181.88;5032472;28;20029;-70
2022/06/17 09:41:42;;;;;;;1999.90;999.90;;;;;;;24.50;32.90;96129.09;5032045;28;20064;-70
2022/06/17 09:44:14;;;;;;;1999.90;999.90;;;;;;;24.47;35.05;96135.28;5031185;28;20382;-69
2022/06/17 09:46:43;;;;;;;1999.90;999.90;;;;;;;24.55;34.27;96141.59;5031934;28;20393;-69
2022/06/17 09:49:16;;;;;;;1999.90;999.90;;;;;;;24.55;35.00;96180.44;5031812;28;20033;-69
2022/06/17 09:51:46;;;;;;;1999.90;999.90;;;;;;;25.28;33.49;96114.78;5031441;28;20021;-70
2022/06/17 09:54:27;;;;;;;1999.90;999.90;;;;;;;26.16;33.60;96182.13;5031728;28;20045;-70
2022/06/17 09:57:06;;;;;;;1999.90;999.90;;;;;;;24.42;34.96;96140.28;5031339;28;20057;-69
2022/06/17 09:59:39;;;;;;;1999.90;999.90;;;;;;;25.28;33.33;96152.91;5031953;28;20037;-70
2022/06/17 10:02:37;;;;;;;1999.90;999.90;;;;;;;25.00;34.63;96172.44;5031474;28;20032;-70
2022/06/17 10:05:32;;;;;;;1999.90;999.90;;;;;;;25.66;32.33;96208.94;5024020;28;20038;-70
2022/06/17 10:08:11;;;;;;;1999.90;999.90;;;;;;;25.96;33.19;96199.88;5021092;28;20180;-70
2022/06/17 10:11:01;;;;;;;1999.90;999.90;;;;;;;25.44;33.23;96190.81;5031300;28;20076;-70
2022/06/17 10:13:40;;;;;;;1999.90;999.90;;;;;;;25.24;33.49;96176.63;5031753;28;20053;-70
2022/06/17 10:18:59;;;;;;;1999.90;999.90;;;;;;;26.25;32.50;96187.22;5031693;28;20087;-70
2022/06/17 10:21:43;;;;;;;1999.90;999.90;;;;;;;25.81;33.06;96199.75;5031277;28;20470;-70
2022/06/17 10:24:31;;;;;;;1999.90;999.90;;;;;;;24.89;33.53;96126.06;5031410;28;20383;-70
2022/06/17 10:27:42;;;;;;;1999.90;999.90;;;;;;;26.54;32.17;96169.09;5031172;28;20032;-70
2022/06/17 10:30:19;;;;;;;1999.90;999.90;;;;;;;25.15;31.92;96127.91;5030945;28;20021;-70
2022/06/17 10:32:49;;;;;;;1999.90;999.90;;;;;;;25.24;33.35;96146.69;5031161;28;20052;-71
2022/06/17 10:35:25;;;;;;;1999.90;999.90;;;;;;;25.05;34.66;96136.72;5031248;28;20377;-69
2022/06/17 10:37:51;;;;;;;1999.90;999.90;;;;;;;25.10;33.32;96106.47;5031456;28;20030;-69
2022/06/17 10:40:21;;;;;;;1999.90;999.90;;;;;;;25.22;34.01;96151.69;5030785;28;20109;-69
2022/06/17 10:42:48;;;;;;;1999.90;999.90;;;;;;;25.10;34.71;96177.25;5031104;28;20469;-70
2022/06/17 10:45:16;;;;;;;1999.90;999.90;;;;;;;25.45;32.38;96116.91;5031039;28;20041;-69
2022/06/17 10:48:03;;;;;;;1999.90;999.90;;;;;;;26.16;32.93;96163.81;5030931;28;20025;-70
2022/06/17 10:50:31;;;;;;;1999.90;999.90;;;;;;;26.33;32.06;96115.97;5029099;28;20018;-69
2022/06/17 10:53:13;;;;;;;1999.90;999.90;;;;;;;26.39;31.84;96136.25;5030884;28;20401;-69
2022/06/17 10:55:45;;;;;;;1999.90;999.90;;;;;;;25.27;33.33;96111.28;5030599;28;20021;-70
2022/06/17 10:58:18;;;;;;;1999.90;999.90;;;;;;;25.98;32.45;96153.94;5030762;28;20021;-69
2022/06/17 11:01:05;;;;;;;1999.90;999.90;;;;;;;26.28;31.46;96162.69;5030244;28;20036;-70
2022/06/17 11:03:39;;;;;;;1999.90;999.90;;;;;;;26.87;29.53;96155.22;5030647;28;20040;-70
2022/06/17 11:06:25;;;;;;;1999.90;999.90;;;;;;;27.70;29.41;96156.97;5030456;28;20522;-69
2022/06/17 11:08:57;;;;;;;1999.90;999.90;;;;;;;26.44;29.49;96141.38;5029675;28;20481;-69
2022/06/17 11:12:03;;;;;;;1999.90;999.90;;;;;;;26.24;29.61;96161.09;5030082;28;20036;-69
2022/06/17 11:14:48;;;;;;;1999.90;999.90;;;;;;;26.22;29.84;96136.19;5019425;28;20037;-69
2022/06/17 11:17:39;;;;;;;1999.90;999.90;;;;;;;26.69;27.20;96152.41;5030231;28;20072;-69
2022/06/17 11:20:06;;;;;;;;;;;;;;;27.06;27.01;96165.00;5030520;28;20025;-69
2022/06/17 11:22:34;;;;;;;1999.90;999.90;;;;;;;26.12;28.19;96170.41;5030315;28;19913;-69
2022/06/17 11:25:07;;;;;;;1999.90;999.90;;;;;;;25.87;28.44;96104.78;5029894;28;20542;-70